RYR21LM LEPA-LIMJ
Flight info
| Callsign | RYR21LM |
|---|---|
| Flight time | 1h 6m |
| Altitude | 34000 |
| Route | ISTER DCT NIVDA DCT OMEDA DCT RAPUR/N0459F300 DCT TORTU DCT ERTEV DCT OLETI DCT UNITA |
| Aircraft | B38M/M-SDE1FGHILORVWXY/HB1 |
Departure
| Time | 2026-04-21 21:35 |
|---|---|
| Airport | Palma de Mallorca Airport (LEPA) |
Arrival
| Time | 2026-04-21 22:42 |
|---|---|
| Airport | Genoa Cristoforo Colombo Airport (LIMJ) |
| Time | Latitude | Longitude | Altitude | Speed | Heading |
|---|---|---|---|---|---|
| 2026-04-21 21:01 | 39.54797 | 2.73600 | 32 ft | 0 kts | 58° |
| 2026-04-21 21:25 | 39.54786 | 2.73575 | 32 ft | 4 kts | 68° |
| 2026-04-21 21:25 | 39.54781 | 2.73542 | 32 ft | 4 kts | 95° |
| 2026-04-21 21:25 | 39.54790 | 2.73516 | 32 ft | 3 kts | 147° |
| 2026-04-21 21:25 | 39.54792 | 2.73514 | 32 ft | 1 kts | 149° |
| 2026-04-21 21:28 | 39.54759 | 2.73540 | 32 ft | 10 kts | 149° |
| 2026-04-21 21:28 | 39.54672 | 2.73692 | 32 ft | 13 kts | 62° |
| 2026-04-21 21:29 | 39.54723 | 2.73805 | 32 ft | 17 kts | 59° |
| 2026-04-21 21:29 | 39.54797 | 2.73962 | 32 ft | 17 kts | 57° |
| 2026-04-21 21:29 | 39.54896 | 2.73965 | 32 ft | 17 kts | 332° |
| 2026-04-21 21:29 | 39.54992 | 2.73996 | 32 ft | 13 kts | 350° |
| 2026-04-21 21:30 | 39.55070 | 2.73938 | 32 ft | 14 kts | 327° |
| 2026-04-21 21:30 | 39.55163 | 2.73863 | 32 ft | 19 kts | 328° |
| 2026-04-21 21:30 | 39.55321 | 2.73738 | 32 ft | 32 kts | 328° |
| 2026-04-21 21:30 | 39.55521 | 2.73581 | 32 ft | 34 kts | 328° |
| 2026-04-21 21:31 | 39.55658 | 2.73511 | 32 ft | 11 kts | 31° |
| 2026-04-21 21:31 | 39.55697 | 2.73589 | 32 ft | 13 kts | 56° |
| 2026-04-21 21:31 | 39.55765 | 2.73730 | 32 ft | 22 kts | 59° |
| 2026-04-21 21:31 | 39.55850 | 2.73912 | 32 ft | 25 kts | 59° |
| 2026-04-21 21:32 | 39.55946 | 2.74112 | 32 ft | 27 kts | 58° |
| 2026-04-21 21:32 | 39.56064 | 2.74276 | 32 ft | 25 kts | 34° |
| 2026-04-21 21:32 | 39.56168 | 2.74362 | 32 ft | 12 kts | 19° |
| 2026-04-21 21:32 | 39.56241 | 2.74318 | 32 ft | 13 kts | 292° |
| 2026-04-21 21:33 | 39.56228 | 2.74260 | 32 ft | 1 kts | 239° |
| 2026-04-21 21:33 | 39.56222 | 2.74246 | 32 ft | 0 kts | 239° |
| 2026-04-21 21:34 | 39.56221 | 2.74246 | 32 ft | 0 kts | 239° |
| 2026-04-21 21:34 | 39.56178 | 2.74152 | 32 ft | 36 kts | 238° |
| 2026-04-21 21:34 | 39.55927 | 2.73623 | 32 ft | 100 kts | 238° |
| 2026-04-21 21:35 | 39.55470 | 2.72655 | 33 ft | 150 kts | 239° |
| 2026-04-21 21:35 | 39.54889 | 2.71399 | 299 ft | 167 kts | 239° |
| 2026-04-21 21:35 | 39.54303 | 2.70087 | 895 ft | 169 kts | 240° |
| 2026-04-21 21:35 | 39.53677 | 2.68679 | 1182 ft | 192 kts | 238° |
| 2026-04-21 21:36 | 39.53007 | 2.67220 | 1936 ft | 191 kts | 236° |
| 2026-04-21 21:36 | 39.52246 | 2.65723 | 2429 ft | 209 kts | 232° |
| 2026-04-21 21:36 | 39.51378 | 2.64152 | 3094 ft | 220 kts | 232° |
| 2026-04-21 21:36 | 39.50466 | 2.62466 | 3678 ft | 236 kts | 233° |
| 2026-04-21 21:37 | 39.49458 | 2.60744 | 4288 ft | 248 kts | 227° |
| 2026-04-21 21:37 | 39.48228 | 2.59228 | 5218 ft | 242 kts | 215° |
| 2026-04-21 21:37 | 39.46843 | 2.58030 | 6173 ft | 241 kts | 210° |
| 2026-04-21 21:37 | 39.45324 | 2.56972 | 6619 ft | 260 kts | 208° |
| 2026-04-21 21:38 | 39.43617 | 2.55971 | 7067 ft | 278 kts | 194° |
| 2026-04-21 21:38 | 39.41698 | 2.55953 | 7896 ft | 280 kts | 168° |
| 2026-04-21 21:38 | 39.39909 | 2.56999 | 8624 ft | 288 kts | 143° |
| 2026-04-21 21:38 | 39.38577 | 2.58938 | 9432 ft | 293 kts | 120° |
| 2026-04-21 21:39 | 39.37656 | 2.61317 | 10122 ft | 299 kts | 123° |
| 2026-04-21 21:39 | 39.36175 | 2.63272 | 10494 ft | 314 kts | 143° |
| 2026-04-21 21:39 | 39.34467 | 2.65172 | 10800 ft | 335 kts | 139° |
| 2026-04-21 21:39 | 39.32714 | 2.67265 | 11210 ft | 350 kts | 138° |
| 2026-04-21 21:40 | 39.30916 | 2.69456 | 11791 ft | 358 kts | 136° |
| 2026-04-21 21:40 | 39.29418 | 2.72044 | 12506 ft | 365 kts | 118° |
| 2026-04-21 21:40 | 39.28644 | 2.75174 | 13221 ft | 371 kts | 97° |
| 2026-04-21 21:40 | 39.28577 | 2.78485 | 13915 ft | 377 kts | 89° |
| 2026-04-21 21:41 | 39.28570 | 2.81889 | 14588 ft | 381 kts | 90° |
| 2026-04-21 21:41 | 39.28547 | 2.85328 | 15330 ft | 385 kts | 90° |
| 2026-04-21 21:41 | 39.28516 | 2.88804 | 16028 ft | 390 kts | 90° |
| 2026-04-21 21:41 | 39.28642 | 2.92316 | 16709 ft | 393 kts | 78° |
| 2026-04-21 21:42 | 39.29540 | 2.95638 | 17402 ft | 394 kts | 60° |
| 2026-04-21 21:42 | 39.30860 | 2.98756 | 18030 ft | 399 kts | 59° |
| 2026-04-21 21:42 | 39.32217 | 3.01894 | 18645 ft | 402 kts | 59° |
| 2026-04-21 21:42 | 39.33603 | 3.05058 | 19232 ft | 406 kts | 58° |
| 2026-04-21 21:43 | 39.35010 | 3.08242 | 19822 ft | 409 kts | 58° |
| 2026-04-21 21:43 | 39.36429 | 3.11444 | 20415 ft | 412 kts | 58° |
| 2026-04-21 21:43 | 39.37864 | 3.14676 | 20978 ft | 416 kts | 58° |
| 2026-04-21 21:43 | 39.39308 | 3.17934 | 21537 ft | 419 kts | 58° |
| 2026-04-21 21:44 | 39.40765 | 3.21222 | 22093 ft | 423 kts | 58° |
| 2026-04-21 21:44 | 39.42233 | 3.24537 | 22646 ft | 426 kts | 57° |
| 2026-04-21 21:44 | 39.43755 | 3.27838 | 23171 ft | 429 kts | 57° |
| 2026-04-21 21:44 | 39.45276 | 3.31128 | 23666 ft | 433 kts | 57° |
| 2026-04-21 21:45 | 39.46821 | 3.34480 | 24101 ft | 436 kts | 57° |
| 2026-04-21 21:45 | 39.48376 | 3.37861 | 24555 ft | 438 kts | 57° |
| 2026-04-21 21:45 | 39.49942 | 3.41269 | 24988 ft | 441 kts | 57° |
| 2026-04-21 21:45 | 39.51513 | 3.44694 | 25421 ft | 444 kts | 57° |
| 2026-04-21 21:46 | 39.53096 | 3.48149 | 25849 ft | 447 kts | 57° |
| 2026-04-21 21:46 | 39.54685 | 3.51619 | 26291 ft | 449 kts | 57° |
| 2026-04-21 21:46 | 39.56280 | 3.55107 | 26707 ft | 451 kts | 57° |
| 2026-04-21 21:46 | 39.57885 | 3.58620 | 27075 ft | 455 kts | 57° |
| 2026-04-21 21:47 | 39.59518 | 3.62201 | 27072 ft | 468 kts | 57° |
| 2026-04-21 21:47 | 39.61201 | 3.65894 | 27071 ft | 480 kts | 57° |
| 2026-04-21 21:47 | 39.62918 | 3.69666 | 27073 ft | 492 kts | 57° |
| 2026-04-21 21:47 | 39.64662 | 3.73503 | 27399 ft | 494 kts | 57° |
| 2026-04-21 21:48 | 39.66411 | 3.77354 | 27771 ft | 497 kts | 57° |
| 2026-04-21 21:48 | 39.68168 | 3.81229 | 28083 ft | 499 kts | 57° |
| 2026-04-21 21:48 | 39.69932 | 3.85125 | 28399 ft | 501 kts | 57° |
| 2026-04-21 21:48 | 39.71678 | 3.88983 | 28800 ft | 500 kts | 57° |
| 2026-04-21 21:49 | 39.73438 | 3.92877 | 29223 ft | 499 kts | 57° |
| 2026-04-21 21:49 | 39.75192 | 3.96767 | 29652 ft | 499 kts | 57° |
| 2026-04-21 21:49 | 39.76947 | 4.00659 | 29975 ft | 499 kts | 57° |
| 2026-04-21 21:50 | 39.80444 | 4.08433 | 29955 ft | 496 kts | 57° |
| 2026-04-21 21:50 | 39.83928 | 4.16194 | 29962 ft | 497 kts | 57° |
| 2026-04-21 21:51 | 39.87412 | 4.23960 | 29967 ft | 497 kts | 57° |
| 2026-04-21 21:51 | 39.90903 | 4.31743 | 29966 ft | 497 kts | 57° |
| 2026-04-21 21:52 | 39.94392 | 4.39541 | 29964 ft | 497 kts | 57° |
| 2026-04-21 21:52 | 39.97842 | 4.47270 | 29957 ft | 495 kts | 58° |
| 2026-04-21 21:53 | 40.01301 | 4.55040 | 29957 ft | 495 kts | 58° |
| 2026-04-21 21:53 | 40.04758 | 4.62824 | 29955 ft | 496 kts | 58° |
| 2026-04-21 21:54 | 40.08699 | 4.70137 | 29967 ft | 492 kts | 47° |
| 2026-04-21 21:54 | 40.12336 | 4.75868 | 29959 ft | 492 kts | 47° |
| 2026-04-21 21:55 | 40.16716 | 4.82755 | 29965 ft | 492 kts | 47° |
| 2026-04-21 21:55 | 40.21080 | 4.89627 | 29957 ft | 491 kts | 47° |
| 2026-04-21 21:56 | 40.25441 | 4.96510 | 29968 ft | 491 kts | 47° |
| 2026-04-21 21:56 | 40.29802 | 5.03409 | 29958 ft | 491 kts | 47° |
| 2026-04-21 21:57 | 40.34160 | 5.10316 | 29958 ft | 491 kts | 47° |
| 2026-04-21 21:57 | 40.38493 | 5.17201 | 29962 ft | 491 kts | 47° |
| 2026-04-21 21:58 | 40.42829 | 5.24105 | 29961 ft | 490 kts | 47° |
| 2026-04-21 21:58 | 40.47167 | 5.31029 | 29958 ft | 490 kts | 47° |
| 2026-04-21 21:59 | 40.51500 | 5.37960 | 29961 ft | 491 kts | 47° |
| 2026-04-21 21:59 | 40.55828 | 5.44898 | 29961 ft | 491 kts | 47° |
| 2026-04-21 22:00 | 40.60153 | 5.51847 | 29960 ft | 491 kts | 47° |
| 2026-04-21 22:00 | 40.64455 | 5.58775 | 29963 ft | 491 kts | 47° |
| 2026-04-21 22:01 | 40.68778 | 5.65753 | 29964 ft | 491 kts | 48° |
| 2026-04-21 22:01 | 40.73062 | 5.72681 | 29967 ft | 491 kts | 47° |
| 2026-04-21 22:02 | 40.77371 | 5.79668 | 29978 ft | 491 kts | 47° |
| 2026-04-21 22:02 | 40.81669 | 5.86653 | 29960 ft | 489 kts | 47° |
| 2026-04-21 22:03 | 40.85954 | 5.93632 | 29957 ft | 489 kts | 47° |
| 2026-04-21 22:03 | 40.90239 | 6.00627 | 29960 ft | 489 kts | 47° |
| 2026-04-21 22:04 | 40.94522 | 6.07636 | 29964 ft | 489 kts | 47° |
| 2026-04-21 22:04 | 40.98800 | 6.14650 | 29966 ft | 489 kts | 47° |
| 2026-04-21 22:05 | 41.03032 | 6.21606 | 29963 ft | 488 kts | 47° |
| 2026-04-21 22:05 | 41.07291 | 6.28623 | 29960 ft | 488 kts | 47° |
| 2026-04-21 22:06 | 41.11544 | 6.35645 | 29960 ft | 488 kts | 47° |
| 2026-04-21 22:06 | 41.15793 | 6.42674 | 29960 ft | 488 kts | 47° |
| 2026-04-21 22:07 | 41.20030 | 6.49700 | 29960 ft | 486 kts | 48° |
| 2026-04-21 22:07 | 41.24264 | 6.56700 | 29963 ft | 485 kts | 47° |
| 2026-04-21 22:08 | 41.28550 | 6.63564 | 29963 ft | 485 kts | 47° |
| 2026-04-21 22:08 | 41.32853 | 6.70491 | 29957 ft | 485 kts | 47° |
| 2026-04-21 22:09 | 41.37152 | 6.77427 | 29971 ft | 485 kts | 47° |
| 2026-04-21 22:09 | 41.41448 | 6.84376 | 29974 ft | 486 kts | 47° |
| 2026-04-21 22:10 | 41.45748 | 6.91346 | 29962 ft | 487 kts | 47° |
| 2026-04-21 22:10 | 41.50019 | 6.98286 | 29961 ft | 487 kts | 47° |
| 2026-04-21 22:11 | 41.54310 | 7.05274 | 29963 ft | 487 kts | 47° |
| 2026-04-21 22:11 | 41.58596 | 7.12269 | 29965 ft | 485 kts | 47° |
| 2026-04-21 22:12 | 41.62859 | 7.19244 | 29963 ft | 484 kts | 47° |
| 2026-04-21 22:12 | 41.67119 | 7.26231 | 29960 ft | 485 kts | 47° |
| 2026-04-21 22:13 | 41.71379 | 7.33232 | 29963 ft | 485 kts | 47° |
| 2026-04-21 22:13 | 41.75634 | 7.40243 | 29977 ft | 484 kts | 46° |
| 2026-04-21 22:14 | 41.79849 | 7.47202 | 29967 ft | 483 kts | 46° |
| 2026-04-21 22:14 | 41.84081 | 7.54208 | 29956 ft | 483 kts | 46° |
| 2026-04-21 22:15 | 41.88308 | 7.61219 | 29956 ft | 483 kts | 46° |
| 2026-04-21 22:15 | 41.92536 | 7.68252 | 29959 ft | 484 kts | 46° |
| 2026-04-21 22:16 | 41.96763 | 7.75295 | 29960 ft | 484 kts | 46° |
| 2026-04-21 22:16 | 42.00983 | 7.82347 | 29967 ft | 484 kts | 46° |
| 2026-04-21 22:17 | 42.05207 | 7.89421 | 29962 ft | 484 kts | 46° |
| 2026-04-21 22:17 | 42.09392 | 7.96446 | 29967 ft | 484 kts | 46° |
| 2026-04-21 22:18 | 42.13605 | 8.03533 | 29987 ft | 484 kts | 46° |
| 2026-04-21 22:18 | 42.17816 | 8.10635 | 29966 ft | 484 kts | 46° |
| 2026-04-21 22:19 | 42.22025 | 8.17750 | 29964 ft | 484 kts | 46° |
| 2026-04-21 22:19 | 42.26205 | 8.24830 | 29962 ft | 485 kts | 46° |
| 2026-04-21 22:20 | 42.30404 | 8.31948 | 29965 ft | 484 kts | 45° |
| 2026-04-21 22:20 | 42.32755 | 8.35125 | 29986 ft | 472 kts | 31° |
| 2026-04-21 22:20 | 42.35551 | 8.37334 | 29976 ft | 460 kts | 18° |
| 2026-04-21 22:21 | 42.41431 | 8.40848 | 29962 ft | 460 kts | 17° |
| 2026-04-21 22:21 | 42.47341 | 8.44193 | 29964 ft | 460 kts | 16° |
| 2026-04-21 22:22 | 42.53265 | 8.47494 | 29960 ft | 460 kts | 16° |
| 2026-04-21 22:22 | 42.59143 | 8.50769 | 29965 ft | 460 kts | 16° |
| 2026-04-21 22:23 | 42.65071 | 8.54079 | 29964 ft | 460 kts | 16° |
| 2026-04-21 22:23 | 42.70992 | 8.57390 | 29991 ft | 460 kts | 16° |
| 2026-04-21 22:24 | 42.76902 | 8.60703 | 29966 ft | 459 kts | 16° |
| 2026-04-21 22:24 | 42.82784 | 8.64008 | 29971 ft | 452 kts | 16° |
| 2026-04-21 22:25 | 42.88588 | 8.67274 | 29968 ft | 449 kts | 16° |
| 2026-04-21 22:25 | 42.91408 | 8.68864 | 29334 ft | 443 kts | 16° |
| 2026-04-21 22:25 | 42.94270 | 8.70479 | 28267 ft | 447 kts | 16° |
| 2026-04-21 22:25 | 42.97162 | 8.72112 | 27220 ft | 451 kts | 16° |
| 2026-04-21 22:26 | 43.00060 | 8.73751 | 26447 ft | 449 kts | 16° |
| 2026-04-21 22:26 | 43.02939 | 8.75380 | 25683 ft | 447 kts | 16° |
| 2026-04-21 22:26 | 43.05833 | 8.77019 | 24517 ft | 454 kts | 17° |
| 2026-04-21 22:26 | 43.08779 | 8.78691 | 23464 ft | 460 kts | 17° |
| 2026-04-21 22:27 | 43.11726 | 8.80363 | 22644 ft | 456 kts | 17° |
| 2026-04-21 22:27 | 43.14647 | 8.82023 | 21864 ft | 452 kts | 17° |
| 2026-04-21 22:27 | 43.17538 | 8.83668 | 21118 ft | 447 kts | 17° |
| 2026-04-21 22:27 | 43.20396 | 8.85295 | 20423 ft | 442 kts | 17° |
| 2026-04-21 22:28 | 43.23224 | 8.86887 | 19739 ft | 436 kts | 15° |
| 2026-04-21 22:28 | 43.26116 | 8.87945 | 19050 ft | 424 kts | 2° |
| 2026-04-21 22:28 | 43.29031 | 8.88435 | 18377 ft | 421 kts | 3° |
| 2026-04-21 22:28 | 43.31924 | 8.89001 | 17679 ft | 417 kts | 3° |
| 2026-04-21 22:29 | 43.34779 | 8.89586 | 16997 ft | 413 kts | 4° |
| 2026-04-21 22:29 | 43.37607 | 8.90182 | 16346 ft | 409 kts | 4° |
| 2026-04-21 22:29 | 43.40402 | 8.90778 | 15713 ft | 405 kts | 4° |
| 2026-04-21 22:29 | 43.43147 | 8.91367 | 15078 ft | 402 kts | 4° |
| 2026-04-21 22:30 | 43.45900 | 8.91960 | 14459 ft | 399 kts | 4° |
| 2026-04-21 22:30 | 43.48634 | 8.92549 | 13884 ft | 396 kts | 4° |
| 2026-04-21 22:30 | 43.51348 | 8.93134 | 13256 ft | 393 kts | 4° |
| 2026-04-21 22:30 | 43.54029 | 8.93712 | 13054 ft | 390 kts | 4° |
| 2026-04-21 22:31 | 43.56719 | 8.94294 | 12963 ft | 392 kts | 4° |
| 2026-04-21 22:31 | 43.59419 | 8.94877 | 12975 ft | 393 kts | 4° |
| 2026-04-21 22:31 | 43.62115 | 8.95461 | 12976 ft | 393 kts | 4° |
| 2026-04-21 22:31 | 43.64813 | 8.96133 | 12977 ft | 394 kts | 7° |
| 2026-04-21 22:32 | 43.67501 | 8.96918 | 12981 ft | 395 kts | 9° |
| 2026-04-21 22:32 | 43.70093 | 8.98250 | 12976 ft | 401 kts | 22° |
| 2026-04-21 22:32 | 43.72668 | 8.99633 | 12962 ft | 394 kts | 8° |
| 2026-04-21 22:32 | 43.75317 | 9.00447 | 12490 ft | 389 kts | 10° |
| 2026-04-21 22:33 | 43.77951 | 9.01393 | 11776 ft | 391 kts | 11° |
| 2026-04-21 22:33 | 43.80533 | 9.02373 | 11217 ft | 387 kts | 12° |
| 2026-04-21 22:33 | 43.83120 | 9.03380 | 10622 ft | 385 kts | 13° |
| 2026-04-21 22:33 | 43.85682 | 9.04396 | 10167 ft | 380 kts | 13° |
| 2026-04-21 22:34 | 43.88211 | 9.05408 | 10041 ft | 380 kts | 13° |
| 2026-04-21 22:34 | 43.90760 | 9.06430 | 9968 ft | 381 kts | 13° |
| 2026-04-21 22:34 | 43.93292 | 9.07448 | 9596 ft | 377 kts | 14° |
| 2026-04-21 22:34 | 43.95824 | 9.08469 | 8917 ft | 377 kts | 14° |
| 2026-04-21 22:35 | 43.98340 | 9.09483 | 8342 ft | 374 kts | 14° |
| 2026-04-21 22:35 | 44.00828 | 9.10487 | 7791 ft | 370 kts | 14° |
| 2026-04-21 22:35 | 44.03263 | 9.11471 | 7251 ft | 368 kts | 14° |
| 2026-04-21 22:35 | 44.05703 | 9.12456 | 7090 ft | 366 kts | 14° |
| 2026-04-21 22:36 | 44.10603 | 9.14438 | 6985 ft | 366 kts | 15° |
| 2026-04-21 22:36 | 44.13054 | 9.15431 | 6985 ft | 366 kts | 15° |
| 2026-04-21 22:36 | 44.15492 | 9.16418 | 6826 ft | 361 kts | 15° |
| 2026-04-21 22:37 | 44.17935 | 9.17213 | 6163 ft | 361 kts | 4° |
| 2026-04-21 22:37 | 44.20425 | 9.17082 | 5614 ft | 357 kts | 354° |
| 2026-04-21 22:37 | 44.22891 | 9.16719 | 5129 ft | 353 kts | 353° |
| 2026-04-21 22:37 | 44.25303 | 9.16340 | 4492 ft | 354 kts | 353° |
| 2026-04-21 22:38 | 44.27715 | 9.15619 | 4129 ft | 356 kts | 337° |
| 2026-04-21 22:38 | 44.29762 | 9.13687 | 4745 ft | 359 kts | 318° |
| 2026-04-21 22:38 | 44.31681 | 9.11455 | 4642 ft | 357 kts | 328° |
| 2026-04-21 22:38 | 44.33852 | 9.09829 | 4043 ft | 348 kts | 329° |
| 2026-04-21 22:39 | 44.35636 | 9.07689 | 3500 ft | 332 kts | 309° |
| 2026-04-21 22:39 | 44.36734 | 9.04953 | 3025 ft | 317 kts | 290° |
| 2026-04-21 22:39 | 44.37332 | 9.02055 | 2596 ft | 302 kts | 285° |
| 2026-04-21 22:39 | 44.37908 | 8.99339 | 2185 ft | 288 kts | 288° |
| 2026-04-21 22:40 | 44.38495 | 8.96725 | 1850 ft | 273 kts | 288° |
| 2026-04-21 22:40 | 44.39133 | 8.94324 | 1666 ft | 254 kts | 290° |
| 2026-04-21 22:40 | 44.39618 | 8.92025 | 1131 ft | 239 kts | 284° |
| 2026-04-21 22:40 | 44.40033 | 8.89941 | 803 ft | 203 kts | 287° |
| 2026-04-21 22:41 | 44.40411 | 8.88197 | 449 ft | 176 kts | 284° |
| 2026-04-21 22:41 | 44.40708 | 8.86633 | 161 ft | 157 kts | 285° |
| 2026-04-21 22:41 | 44.40992 | 8.85208 | 10 ft | 143 kts | 285° |
| 2026-04-21 22:41 | 44.41189 | 8.84210 | 14 ft | 70 kts | 285° |
| 2026-04-21 22:42 | 44.41287 | 8.83700 | 13 ft | 51 kts | 285° |
| 2026-04-21 22:42 | 44.41341 | 8.83413 | 14 ft | 37 kts | 285° |
| 2026-04-21 22:42 | 44.41497 | 8.83089 | 14 ft | 16 kts | 356° |
| 2026-04-21 22:42 | 44.41548 | 8.83148 | 14 ft | 16 kts | 81° |
| 2026-04-21 22:43 | 44.41525 | 8.83294 | 14 ft | 15 kts | 106° |
| 2026-04-21 22:43 | 44.41496 | 8.83439 | 13 ft | 16 kts | 104° |
| 2026-04-21 22:43 | 44.41470 | 8.83587 | 14 ft | 16 kts | 105° |
| 2026-04-21 22:43 | 44.41427 | 8.83792 | 13 ft | 17 kts | 105° |
| 2026-04-21 22:44 | 44.41406 | 8.83899 | 13 ft | 17 kts | 104° |
| 2026-04-21 22:44 | 44.41377 | 8.84056 | 12 ft | 17 kts | 104° |
| 2026-04-21 22:44 | 44.41347 | 8.84215 | 12 ft | 17 kts | 105° |
| 2026-04-21 22:44 | 44.41318 | 8.84340 | 12 ft | 0 kts | 112° |
| 2026-04-21 22:46 | 44.41310 | 8.84356 | 12 ft | 6 kts | 140° |
| 2026-04-21 22:46 | 44.41281 | 8.84332 | 14 ft | 6 kts | 257° |
| 2026-04-21 22:47 | 44.41271 | 8.84301 | 12 ft | 0 kts | 208° |
| 2026-04-21 22:47 | 44.41268 | 8.84302 | 15 ft | 1 kts | 174° |
| 2026-04-21 22:47 | 44.41265 | 8.84309 | 14 ft | 1 kts | 115° |
| 2026-04-21 22:47 | 44.41273 | 8.84336 | 13 ft | 0 kts | 47° |
| 2026-04-21 22:48 | 44.41280 | 8.84348 | 12 ft | 3 kts | 46° |
| 2026-04-21 22:48 | 44.41289 | 8.84360 | 12 ft | 0 kts | 46° |
| 2026-04-21 22:48 | 44.41307 | 8.84389 | 14 ft | 6 kts | 49° |
| 2026-04-21 22:49 | 44.41309 | 8.84392 | 12 ft | 0 kts | 50° |
| 2026-04-21 22:49 | 44.41313 | 8.84399 | 12 ft | 0 kts | 43° |
| 2026-04-21 22:49 | 44.41319 | 8.84411 | 12 ft | 15 kts | 56° |
| 2026-04-21 22:49 | 44.41362 | 8.84499 | 12 ft | 13 kts | 52° |
| 2026-04-21 22:50 | 44.41394 | 8.84621 | 12 ft | 13 kts | 71° |
| 2026-04-21 22:50 | 44.41393 | 8.84742 | 12 ft | 13 kts | 104° |
| 2026-04-21 22:50 | 44.41377 | 8.84833 | 12 ft | 3 kts | 104° |
| 2026-04-21 22:50 | 44.41404 | 8.84682 | 12 ft | 20 kts | 104° |
| 2026-04-21 22:51 | 44.41372 | 8.84859 | 12 ft | 32 kts | 104° |
| 2026-04-21 22:51 | 44.41340 | 8.85036 | 13 ft | 8 kts | 104° |
| 2026-04-21 22:51 | 44.41348 | 8.85105 | 13 ft | 7 kts | 35° |
| 2026-04-21 22:51 | 44.41387 | 8.85118 | 12 ft | 2 kts | 7° |
| 2026-04-21 22:52 | 44.41399 | 8.85121 | 12 ft | 0 kts | 12° |